»·PEaware :: ASA470 KLAS-KSAN

ASA470 :: KLAS-KSAN

FLIGHT INFORMATION

Flight Status: Arrived
Operator:
Alaska Airlines
More flights by this operator :: More flights under this callsign
Pilot: Aidan C. (27000)
Aircraft: BOEING 737-800
(B738)
More flights by this aircraft type
Origin: KLAS McCarran Intl
United States
Destination: KSAN San Diego Intl-Lindbergh
United States
More flights between these airports :: More routes between these airports
Route: +BOACH8 LVELL LUCKI1
File this flight plan on PilotEdge
Remarks:
Altitude:
(Current/Filed)
36,000ft
Speed:
(Current/Filed)
460kts
Departed: 02-Dec-19 07:49 PM
Arrived: 02-Dec-19 08:39 PM
Distance/Time
Traveled:
225nm/0:50
Distance/Time
To Go:
Arrived

Flight Plot

Page will automatically refresh every two minutes.

Flight plan parsing failed; only flown route is shown


Map Options




Map Legend


Flown Route
Filed Route
Departure Airport
Arrival Airport
Navaid (VOR, NDB)
Fix

Horizontal Profiles

Position Reports

Time Latitude Longitude Heading Altitude Ground
Speed
02-Dec-19 19:23 36.080533 -115.140497 121 2077ft 0kts
02-Dec-19 19:24 36.080533 -115.140497 121 2077ft 0kts
02-Dec-19 19:25 36.080533 -115.140497 121 2077ft 0kts
02-Dec-19 19:26 36.080533 -115.140497 121 2077ft 0kts
02-Dec-19 19:27 36.080533 -115.140497 121 2077ft 0kts
02-Dec-19 19:28 36.080533 -115.140497 121 2077ft 0kts
02-Dec-19 19:29 36.080533 -115.140497 121 2077ft 0kts
02-Dec-19 19:30 36.080533 -115.140497 121 2077ft 0kts
02-Dec-19 19:31 36.080533 -115.140497 121 2077ft 0kts
02-Dec-19 19:32 36.080533 -115.140497 121 2077ft 0kts
02-Dec-19 19:33 36.080533 -115.140498 121 2077ft 0kts
02-Dec-19 19:34 36.080533 -115.140498 121 2077ft 0kts
02-Dec-19 19:35 36.080660 -115.140750 121 2078ft 2kts
02-Dec-19 19:36 36.080787 -115.141369 61 2080ft 2kts
02-Dec-19 19:37 36.080438 -115.141603 0 2082ft 0kts
02-Dec-19 19:38 36.080438 -115.141603 0 2082ft 0kts
02-Dec-19 19:39 36.080438 -115.141603 0 2082ft 0kts
02-Dec-19 19:40 36.079905 -115.142427 180 2086ft 10kts
02-Dec-19 19:41 36.079256 -115.142430 180 2087ft 0kts
02-Dec-19 19:42 36.079134 -115.142429 179 2087ft 4kts
02-Dec-19 19:43 36.078274 -115.136782 90 2071ft 35kts
02-Dec-19 19:44 36.078276 -115.125230 90 2042ft 35kts
02-Dec-19 19:45 36.077592 -115.121667 129 2040ft 0kts
02-Dec-19 19:46 36.077592 -115.121667 129 2040ft 0kts
02-Dec-19 19:47 36.077199 -115.121303 163 2040ft 12kts
02-Dec-19 19:48 36.076420 -115.135091 270 2069ft 152kts
02-Dec-19 19:49 36.076591 -115.188661 264 3952ft 209kts
02-Dec-19 19:50 36.046907 -115.259858 218 6334ft 265kts
02-Dec-19 19:51 35.980577 -115.297232 197 7014ft 268kts
02-Dec-19 19:52 35.906121 -115.309384 185 9034ft 277kts
02-Dec-19 19:53 35.829643 -115.312167 175 11500ft 317kts
02-Dec-19 19:54 35.738725 -115.301552 177 14285ft 327kts
02-Dec-19 19:55 35.647650 -115.295348 185 17385ft 331kts
02-Dec-19 19:56 35.554991 -115.299586 186 20234ft 337kts
02-Dec-19 19:57 35.460508 -115.303313 187 22783ft 344kts
02-Dec-19 19:58 35.364307 -115.307123 188 25063ft 350kts
02-Dec-19 19:59 35.267133 -115.310966 189 27080ft 357kts
02-Dec-19 20:00 35.167115 -115.314899 189 28938ft 362kts
02-Dec-19 20:01 35.065232 -115.318899 190 30543ft 369kts
02-Dec-19 20:02 34.962928 -115.322880 190 32255ft 368kts
02-Dec-19 20:03 34.864532 -115.326746 190 33614ft 372kts
02-Dec-19 20:04 34.764018 -115.339449 203 35205ft 356kts
02-Dec-19 20:05 34.671219 -115.379076 206 36234ft 361kts
02-Dec-19 20:06 34.575616 -115.420867 206 36274ft 362kts
02-Dec-19 20:07 34.480823 -115.462251 206 36296ft 363kts
02-Dec-19 20:08 34.385739 -115.503619 208 36308ft 362kts
02-Dec-19 20:09 34.299609 -115.548558 217 36294ft 330kts
02-Dec-19 20:10 34.220717 -115.607250 216 36283ft 333kts
02-Dec-19 20:11 34.134439 -115.650880 207 36266ft 341kts
02-Dec-19 20:12 34.043212 -115.693799 207 36281ft 369kts
02-Dec-19 20:13 33.947954 -115.738619 206 36209ft 365kts
02-Dec-19 20:14 33.870785 -115.775873 207 35232ft 375kts
02-Dec-19 20:15 33.774317 -115.823180 207 32486ft 370kts
02-Dec-19 20:16 33.685136 -115.865088 205 30131ft 380kts
02-Dec-19 20:17 33.589130 -115.909921 204 27916ft 361kts
02-Dec-19 20:18 33.507996 -115.966260 224 26217ft 345kts
02-Dec-19 20:19 33.447670 -116.060586 232 25974ft 354kts
02-Dec-19 20:20 33.393279 -116.154438 232 23779ft 343kts
02-Dec-19 20:21 33.333820 -116.245174 219 23082ft 355kts
02-Dec-19 20:22 33.253779 -116.299262 206 21239ft 347kts
02-Dec-19 20:23 33.164300 -116.351568 205 17149ft 355kts
02-Dec-19 20:24 33.081980 -116.399675 206 14754ft 314kts
02-Dec-19 20:25 33.004821 -116.446515 215 13407ft 286kts
02-Dec-19 20:26 32.942541 -116.507772 222 11663ft 284kts
02-Dec-19 20:27 32.881926 -116.568950 223 10424ft 269kts
02-Dec-19 20:28 32.827536 -116.623765 223 9490ft 262kts
02-Dec-19 20:29 32.776319 -116.677796 234 8267ft 249kts
02-Dec-19 20:31 32.740344 -116.748707 243 6963ft 252kts
02-Dec-19 20:32 32.706981 -116.820256 248 5990ft 243kts
02-Dec-19 20:33 32.684614 -116.892384 247 5180ft 207kts
02-Dec-19 20:34 32.678147 -116.958346 280 4152ft 215kts
02-Dec-19 20:35 32.693068 -117.022639 286 3026ft 176kts
02-Dec-19 20:36 32.705026 -117.072045 287 2080ft 148kts
02-Dec-19 20:37 32.716144 -117.118082 287 1326ft 144kts
02-Dec-19 20:38 32.727204 -117.163539 286 444ft 142kts
02-Dec-19 20:39 32.735264 -117.197499 257 20ft 26kts
02-Dec-19 20:40 32.733057 -117.200499 269 20ft 6kts

Navigation Log

Ident Type
Flight plan parsing failed, navigation log unavailable